sensor_id;sensor_type;location;lat;lon;timestamp;pressure;altitude;pressure_sealevel;temperature;humidity
19795;BME280;10057;59.402;17.866;2022-09-03T00:00:19;102392.50;;;7.59;68.08
19795;BME280;10057;59.402;17.866;2022-09-03T00:03:07;102388.09;;;7.56;68.40
19795;BME280;10057;59.402;17.866;2022-09-03T00:05:40;102378.41;;;7.63;68.52
19795;BME280;10057;59.402;17.866;2022-09-03T00:08:13;102389.88;;;7.73;68.47
19795;BME280;10057;59.402;17.866;2022-09-03T00:13:46;102389.88;;;7.85;67.86
19795;BME280;10057;59.402;17.866;2022-09-03T00:16:17;102384.59;;;7.88;67.76
19795;BME280;10057;59.402;17.866;2022-09-03T00:18:54;102385.47;;;7.95;67.85
19795;BME280;10057;59.402;17.866;2022-09-03T00:21:50;102388.97;;;8.00;67.70
19795;BME280;10057;59.402;17.866;2022-09-03T00:24:20;102388.09;;;8.05;67.79
19795;BME280;10057;59.402;17.866;2022-09-03T00:26:54;102389.00;;;8.11;67.96
19795;BME280;10057;59.402;17.866;2022-09-03T00:29:27;102384.59;;;8.17;67.84
19795;BME280;10057;59.402;17.866;2022-09-03T00:32:03;102386.31;;;8.26;67.88
19795;BME280;10057;59.402;17.866;2022-09-03T00:34:37;102386.31;;;8.32;67.70
19795;BME280;10057;59.402;17.866;2022-09-03T00:37:07;102386.34;;;8.38;67.81
19795;BME280;10057;59.402;17.866;2022-09-03T00:39:41;102385.47;;;8.38;68.11
19795;BME280;10057;59.402;17.866;2022-09-03T00:42:38;102391.63;;;8.40;68.17
19795;BME280;10057;59.402;17.866;2022-09-03T00:45:58;102387.19;;;8.36;68.27
19795;BME280;10057;59.402;17.866;2022-09-03T00:48:22;102382.78;;;8.36;67.72
19795;BME280;10057;59.402;17.866;2022-09-03T00:54:18;102383.69;;;8.38;68.51
19795;BME280;10057;59.402;17.866;2022-09-03T00:59:37;102388.09;;;8.45;68.35
19795;BME280;10057;59.402;17.866;2022-09-03T01:08:06;102386.28;;;8.63;68.47
19795;BME280;10057;59.402;17.866;2022-09-03T01:10:54;102383.63;;;8.63;68.04
19795;BME280;10057;59.402;17.866;2022-09-03T01:13:45;102389.81;;;8.51;68.39
19795;BME280;10057;59.402;17.866;2022-09-03T01:16:29;102389.00;;;8.41;68.56
19795;BME280;10057;59.402;17.866;2022-09-03T01:19:35;102389.00;;;8.38;69.05
19795;BME280;10057;59.402;17.866;2022-09-03T01:25:16;102388.97;;;8.49;69.15
19795;BME280;10057;59.402;17.866;2022-09-03T01:30:37;102381.88;;;8.60;69.41
19795;BME280;10057;59.402;17.866;2022-09-03T01:35:50;102390.69;;;8.68;69.32
19795;BME280;10057;59.402;17.866;2022-09-03T01:44:18;102387.97;;;8.81;69.41
19795;BME280;10057;59.402;17.866;2022-09-03T01:46:50;102381.78;;;8.83;69.35
19795;BME280;10057;59.402;17.866;2022-09-03T01:49:39;102394.16;;;8.81;69.36
19795;BME280;10057;59.402;17.866;2022-09-03T01:52:12;102388.84;;;8.81;69.22
19795;BME280;10057;59.402;17.866;2022-09-03T01:55:28;102382.66;;;8.85;69.13
19795;BME280;10057;59.402;17.866;2022-09-03T01:58:09;102386.19;;;8.87;68.84
19795;BME280;10057;59.402;17.866;2022-09-03T02:00:40;102386.19;;;8.90;69.48
19795;BME280;10057;59.402;17.866;2022-09-03T02:03:10;102378.25;;;8.87;69.84
19795;BME280;10057;59.402;17.866;2022-09-03T02:05:37;102385.28;;;8.88;69.17
19795;BME280;10057;59.402;17.866;2022-09-03T02:08:06;102376.50;;;8.89;69.82
19795;BME280;10057;59.402;17.866;2022-09-03T02:13:07;102380.88;;;8.93;70.30
19795;BME280;10057;59.402;17.866;2022-09-03T02:15:42;102375.56;;;8.98;69.81
19795;BME280;10057;59.402;17.866;2022-09-03T02:18:16;102373.78;;;8.98;70.13
19795;BME280;10057;59.402;17.866;2022-09-03T02:20:44;102371.13;;;9.01;69.50
19795;BME280;10057;59.402;17.866;2022-09-03T02:23:16;102373.75;;;9.01;69.91
19795;BME280;10057;59.402;17.866;2022-09-03T02:26:01;102372.91;;;8.98;70.23
19795;BME280;10057;59.402;17.866;2022-09-03T02:28:30;102369.38;;;8.97;70.03
19795;BME280;10057;59.402;17.866;2022-09-03T02:30:57;102377.31;;;8.99;70.35
19795;BME280;10057;59.402;17.866;2022-09-03T02:33:25;102362.31;;;8.99;70.07
19795;BME280;10057;59.402;17.866;2022-09-03T02:35:52;102379.03;;;9.05;70.30
19795;BME280;10057;59.402;17.866;2022-09-03T02:38:22;102377.28;;;9.07;69.86
19795;BME280;10057;59.402;17.866;2022-09-03T02:40:52;102375.50;;;9.09;70.29
19795;BME280;10057;59.402;17.866;2022-09-03T02:43:48;102369.31;;;9.11;69.82
19795;BME280;10057;59.402;17.866;2022-09-03T02:46:20;102379.88;;;9.14;69.99
19795;BME280;10057;59.402;17.866;2022-09-03T02:48:47;102374.56;;;9.16;70.00
19795;BME280;10057;59.402;17.866;2022-09-03T02:51:14;102375.44;;;9.21;70.68
19795;BME280;10057;59.402;17.866;2022-09-03T02:53:42;102378.94;;;9.23;69.59
19795;BME280;10057;59.402;17.866;2022-09-03T02:56:09;102371.88;;;9.27;69.77
19795;BME280;10057;59.402;17.866;2022-09-03T02:58:35;102364.81;;;9.27;70.39
19795;BME280;10057;59.402;17.866;2022-09-03T03:01:03;102365.66;;;9.29;70.29
19795;BME280;10057;59.402;17.866;2022-09-03T03:03:30;102378.91;;;9.32;70.12
19795;BME280;10057;59.402;17.866;2022-09-03T03:05:59;102372.69;;;9.33;70.07
19795;BME280;10057;59.402;17.866;2022-09-03T03:08:27;102377.13;;;9.33;70.48
19795;BME280;10057;59.402;17.866;2022-09-03T03:10:56;102366.56;;;9.31;70.54
19795;BME280;10057;59.402;17.866;2022-09-03T03:13:27;102365.66;;;9.32;70.67
19795;BME280;10057;59.402;17.866;2022-09-03T03:15:59;102371.84;;;9.31;70.38
19795;BME280;10057;59.402;17.866;2022-09-03T03:18:29;102371.81;;;9.33;70.62
19795;BME280;10057;59.402;17.866;2022-09-03T03:20:55;102370.06;;;9.33;70.31
19795;BME280;10057;59.402;17.866;2022-09-03T03:23:23;102375.34;;;9.33;70.09
19795;BME280;10057;59.402;17.866;2022-09-03T03:25:49;102363.00;;;9.35;70.22
19795;BME280;10057;59.402;17.866;2022-09-03T03:28:18;102368.28;;;9.35;70.71
19795;BME280;10057;59.402;17.866;2022-09-03T03:30:46;102363.88;;;9.37;70.69
19795;BME280;10057;59.402;17.866;2022-09-03T03:33:14;102375.31;;;9.39;71.23
19795;BME280;10057;59.402;17.866;2022-09-03T03:35:41;102369.16;;;9.39;70.96
19795;BME280;10057;59.402;17.866;2022-09-03T03:38:08;102370.03;;;9.39;71.03
19795;BME280;10057;59.402;17.866;2022-09-03T03:40:39;102365.59;;;9.41;71.11
19795;BME280;10057;59.402;17.866;2022-09-03T03:43:08;102370.00;;;9.42;70.91
19795;BME280;10057;59.402;17.866;2022-09-03T03:45:34;102377.06;;;9.43;70.65
19795;BME280;10057;59.402;17.866;2022-09-03T03:48:01;102371.81;;;9.40;71.37
19795;BME280;10057;59.402;17.866;2022-09-03T03:50:28;102370.91;;;9.38;70.97
19795;BME280;10057;59.402;17.866;2022-09-03T03:52:58;102370.03;;;9.36;70.98
19795;BME280;10057;59.402;17.866;2022-09-03T03:55:26;102374.47;;;9.37;70.99
19795;BME280;10057;59.402;17.866;2022-09-03T03:57:53;102371.81;;;9.36;71.27
19795;BME280;10057;59.402;17.866;2022-09-03T04:00:20;102362.97;;;9.38;71.13
19795;BME280;10057;59.402;17.866;2022-09-03T04:02:50;102369.13;;;9.42;71.74
19795;BME280;10057;59.402;17.866;2022-09-03T04:05:16;102367.34;;;9.45;71.45
19795;BME280;10057;59.402;17.866;2022-09-03T04:07:48;102377.00;;;9.49;70.95
19795;BME280;10057;59.402;17.866;2022-09-03T04:10:15;102367.31;;;9.52;71.81
19795;BME280;10057;59.402;17.866;2022-09-03T04:12:41;102375.25;;;9.52;71.42
19795;BME280;10057;59.402;17.866;2022-09-03T04:15:09;102367.31;;;9.52;71.30
19795;BME280;10057;59.402;17.866;2022-09-03T04:17:35;102372.59;;;9.52;71.33
19795;BME280;10057;59.402;17.866;2022-09-03T04:20:02;102366.41;;;9.49;71.64
19795;BME280;10057;59.402;17.866;2022-09-03T04:22:29;102369.94;;;9.52;71.51
19795;BME280;10057;59.402;17.866;2022-09-03T04:24:56;102362.00;;;9.52;71.58
19795;BME280;10057;59.402;17.866;2022-09-03T04:27:23;102367.28;;;9.50;71.97
19795;BME280;10057;59.402;17.866;2022-09-03T04:29:52;102365.56;;;9.51;72.24
19795;BME280;10057;59.402;17.866;2022-09-03T04:32:22;102360.22;;;9.55;72.13
19795;BME280;10057;59.402;17.866;2022-09-03T04:35:07;102368.16;;;9.55;71.61
19795;BME280;10057;59.402;17.866;2022-09-03T04:37:34;102368.19;;;9.51;71.39
19795;BME280;10057;59.402;17.866;2022-09-03T04:40:01;102368.19;;;9.49;72.04
19795;BME280;10057;59.402;17.866;2022-09-03T04:42:30;102367.28;;;9.53;72.69
19795;BME280;10057;59.402;17.866;2022-09-03T04:44:57;102361.97;;;9.56;71.97
19795;BME280;10057;59.402;17.866;2022-09-03T04:47:26;102376.03;;;9.63;72.50
19795;BME280;10057;59.402;17.866;2022-09-03T04:49:53;102370.72;;;9.66;71.95
19795;BME280;10057;59.402;17.866;2022-09-03T04:52:23;102367.19;;;9.65;72.45
19795;BME280;10057;59.402;17.866;2022-09-03T04:54:52;102373.41;;;9.64;72.17
19795;BME280;10057;59.402;17.866;2022-09-03T04:57:19;102370.69;;;9.69;72.64
19795;BME280;10057;59.402;17.866;2022-09-03T04:59:46;102368.03;;;9.72;72.78
19795;BME280;10057;59.402;17.866;2022-09-03T05:02:15;102368.88;;;9.74;72.36
19795;BME280;10057;59.402;17.866;2022-09-03T05:04:42;102363.56;;;9.79;72.62
19795;BME280;10057;59.402;17.866;2022-09-03T05:07:09;102376.75;;;9.83;72.86
19795;BME280;10057;59.402;17.866;2022-09-03T05:09:35;102377.66;;;9.85;72.37
19795;BME280;10057;59.402;17.866;2022-09-03T05:12:02;102374.06;;;9.88;72.35
19795;BME280;10057;59.402;17.866;2022-09-03T05:14:29;102370.53;;;9.90;72.66
19795;BME280;10057;59.402;17.866;2022-09-03T05:16:56;102370.50;;;9.93;72.84
19795;BME280;10057;59.402;17.866;2022-09-03T05:19:23;102366.03;;;9.97;72.54
19795;BME280;10057;59.402;17.866;2022-09-03T05:21:52;102373.13;;;9.96;72.86
19795;BME280;10057;59.402;17.866;2022-09-03T05:24:18;102376.69;;;9.92;72.30
19795;BME280;10057;59.402;17.866;2022-09-03T05:26:48;102362.56;;;9.90;73.01
19795;BME280;10057;59.402;17.866;2022-09-03T05:29:15;102361.63;;;9.94;72.62
19795;BME280;10057;59.402;17.866;2022-09-03T05:31:44;102368.69;;;9.99;72.51
19795;BME280;10057;59.402;17.866;2022-09-03T05:34:10;102364.22;;;10.04;72.42
19795;BME280;10057;59.402;17.866;2022-09-03T05:36:47;102369.47;;;10.08;73.17
19795;BME280;10057;59.402;17.866;2022-09-03T05:39:15;102370.31;;;10.13;73.15
19795;BME280;10057;59.402;17.866;2022-09-03T05:41:42;102374.72;;;10.16;72.59
19795;BME280;10057;59.402;17.866;2022-09-03T05:44:11;102381.75;;;10.20;73.07
19795;BME280;10057;59.402;17.866;2022-09-03T05:46:38;102372.88;;;10.21;73.04
19795;BME280;10057;59.402;17.866;2022-09-03T05:49:07;102371.13;;;10.23;73.41
19795;BME280;10057;59.402;17.866;2022-09-03T05:51:35;102376.44;;;10.26;73.18
19795;BME280;10057;59.402;17.866;2022-09-03T05:54:04;102370.22;;;10.27;73.04
19795;BME280;10057;59.402;17.866;2022-09-03T05:56:32;102375.47;;;10.32;73.14
19795;BME280;10057;59.402;17.866;2022-09-03T05:59:03;102381.63;;;10.37;73.15
19795;BME280;10057;59.402;17.866;2022-09-03T06:01:34;102374.53;;;10.37;73.15
19795;BME280;10057;59.402;17.866;2022-09-03T06:04:10;102378.00;;;10.42;73.54
19795;BME280;10057;59.402;17.866;2022-09-03T06:06:42;102381.53;;;10.44;73.21
19795;BME280;10057;59.402;17.866;2022-09-03T06:09:14;102377.94;;;10.49;73.54
19795;BME280;10057;59.402;17.866;2022-09-03T06:11:43;102384.09;;;10.52;73.33
19795;BME280;10057;59.402;17.866;2022-09-03T06:14:13;102383.16;;;10.58;73.45
19795;BME280;10057;59.402;17.866;2022-09-03T06:16:45;102380.44;;;10.62;73.24
19795;BME280;10057;59.402;17.866;2022-09-03T06:19:15;102384.81;;;10.68;73.33
19795;BME280;10057;59.402;17.866;2022-09-03T06:21:43;102386.53;;;10.74;73.32
19795;BME280;10057;59.402;17.866;2022-09-03T06:24:16;102385.56;;;10.79;73.07
19795;BME280;10057;59.402;17.866;2022-09-03T06:26:43;102383.69;;;10.86;73.22
19795;BME280;10057;59.402;17.866;2022-09-03T06:29:10;102388.06;;;10.90;73.46
19795;BME280;10057;59.402;17.866;2022-09-03T06:31:38;102386.25;;;10.94;73.13
19795;BME280;10057;59.402;17.866;2022-09-03T06:34:05;102388.00;;;10.98;73.11
19795;BME280;10057;59.402;17.866;2022-09-03T06:36:32;102387.06;;;11.00;73.19
19795;BME280;10057;59.402;17.866;2022-09-03T06:38:58;102397.66;;;11.03;73.12
19795;BME280;10057;59.402;17.866;2022-09-03T06:41:28;102394.03;;;11.07;73.19
19795;BME280;10057;59.402;17.866;2022-09-03T06:44:00;102393.13;;;11.10;73.33
19795;BME280;10057;59.402;17.866;2022-09-03T06:46:30;102405.50;;;11.11;73.08
19795;BME280;10057;59.402;17.866;2022-09-03T06:48:57;102401.94;;;11.13;73.20
19795;BME280;10057;59.402;17.866;2022-09-03T06:51:27;102401.94;;;11.15;73.18
19795;BME280;10057;59.402;17.866;2022-09-03T06:54:00;102396.59;;;11.17;73.18
19795;BME280;10057;59.402;17.866;2022-09-03T06:56:27;102389.50;;;11.17;73.19
19795;BME280;10057;59.402;17.866;2022-09-03T06:58:55;102389.44;;;11.20;73.37
19795;BME280;10057;59.402;17.866;2022-09-03T07:01:27;102388.53;;;11.23;73.19
19795;BME280;10057;59.402;17.866;2022-09-03T07:03:58;102385.84;;;11.24;73.50
19795;BME280;10057;59.402;17.866;2022-09-03T07:06:28;102384.03;;;11.29;73.45
19795;BME280;10057;59.402;17.866;2022-09-03T07:08:56;102388.34;;;11.35;73.19
19795;BME280;10057;59.402;17.866;2022-09-03T07:11:26;102382.09;;;11.41;73.26
19795;BME280;10057;59.402;17.866;2022-09-03T07:13:54;102389.09;;;11.45;73.11
19795;BME280;10057;59.402;17.866;2022-09-03T07:16:23;102386.41;;;11.49;72.88
19795;BME280;10057;59.402;17.866;2022-09-03T07:18:50;102391.59;;;11.57;72.58
19795;BME280;10057;59.402;17.866;2022-09-03T07:21:20;102383.53;;;11.63;72.74
19795;BME280;10057;59.402;17.866;2022-09-03T07:23:47;102387.84;;;11.69;72.75
19795;BME280;10057;59.402;17.866;2022-09-03T07:26:17;102390.47;;;11.73;72.49
19795;BME280;10057;59.402;17.866;2022-09-03T07:28:45;102390.34;;;11.79;72.19
19795;BME280;10057;59.402;17.866;2022-09-03T07:31:16;102397.38;;;11.87;72.47
19795;BME280;10057;59.402;17.866;2022-09-03T07:33:45;102392.84;;;11.92;72.17
19795;BME280;10057;59.402;17.866;2022-09-03T07:36:15;102402.47;;;11.99;71.88
19795;BME280;10057;59.402;17.866;2022-09-03T07:38:44;102398.84;;;12.03;72.11
19795;BME280;10057;59.402;17.866;2022-09-03T07:41:12;102403.19;;;12.08;71.65
19795;BME280;10057;59.402;17.866;2022-09-03T07:43:54;102404.03;;;12.12;71.48
19795;BME280;10057;59.402;17.866;2022-09-03T07:46:25;102403.97;;;12.15;71.29
19795;BME280;10057;59.402;17.866;2022-09-03T07:48:54;102401.31;;;12.15;70.75
19795;BME280;10057;59.402;17.866;2022-09-03T07:51:26;102404.88;;;12.14;70.31
19795;BME280;10057;59.402;17.866;2022-09-03T07:53:58;102397.78;;;12.15;70.13
19795;BME280;10057;59.402;17.866;2022-09-03T07:56:26;102407.50;;;12.17;70.14
19795;BME280;10057;59.402;17.866;2022-09-03T07:58:56;102396.75;;;12.20;69.83
19795;BME280;10057;59.402;17.866;2022-09-03T08:01:24;102398.50;;;12.24;69.74
19795;BME280;10057;59.402;17.866;2022-09-03T08:03:53;102392.19;;;12.28;69.58
19795;BME280;10057;59.402;17.866;2022-09-03T08:06:22;102395.63;;;12.33;69.49
19795;BME280;10057;59.402;17.866;2022-09-03T08:08:54;102391.13;;;12.39;69.58
19795;BME280;10057;59.402;17.866;2022-09-03T08:11:30;102394.56;;;12.45;68.91
19795;BME280;10057;59.402;17.866;2022-09-03T08:14:01;102392.66;;;12.50;68.75
19795;BME280;10057;59.402;17.866;2022-09-03T08:16:30;102394.34;;;12.54;68.91
19795;BME280;10057;59.402;17.866;2022-09-03T08:18:57;102396.94;;;12.59;68.73
19795;BME280;10057;59.402;17.866;2022-09-03T08:21:25;102395.06;;;12.64;68.95
19795;BME280;10057;59.402;17.866;2022-09-03T08:23:56;102388.75;;;12.68;68.75
19795;BME280;10057;59.402;17.866;2022-09-03T08:26:31;102392.28;;;12.70;68.69
19795;BME280;10057;59.402;17.866;2022-09-03T08:28:59;102400.22;;;12.73;69.03
19795;BME280;10057;59.402;17.866;2022-09-03T08:31:26;102399.28;;;12.74;68.77
19795;BME280;10057;59.402;17.866;2022-09-03T08:33:56;102404.63;;;12.74;68.47
19795;BME280;10057;59.402;17.866;2022-09-03T08:36:26;102408.22;;;12.73;68.38
19795;BME280;10057;59.402;17.866;2022-09-03T08:38:54;102410.00;;;12.71;68.01
19795;BME280;10057;59.402;17.866;2022-09-03T08:49:14;102404.00;;;12.62;67.53
19795;BME280;10057;59.402;17.866;2022-09-03T08:51:43;102409.34;;;12.60;67.72
19795;BME280;10057;59.402;17.866;2022-09-03T08:54:11;102409.34;;;12.62;67.67
19795;BME280;10057;59.402;17.866;2022-09-03T08:56:40;102409.34;;;12.62;67.48
19795;BME280;10057;59.402;17.866;2022-09-03T08:59:08;102409.34;;;12.60;67.61
19795;BME280;10057;59.402;17.866;2022-09-03T09:09:48;102410.44;;;12.50;67.43
19795;BME280;10057;59.402;17.866;2022-09-03T09:20:48;102417.44;;;12.54;67.91
19795;BME280;10057;59.402;17.866;2022-09-03T09:25:53;102417.34;;;12.60;67.66
19795;BME280;10057;59.402;17.866;2022-09-03T09:28:23;102422.56;;;12.66;67.90
19795;BME280;10057;59.402;17.866;2022-09-03T09:30:54;102421.56;;;12.70;67.58
19795;BME280;10057;59.402;17.866;2022-09-03T09:33:22;102423.25;;;12.76;67.45
19795;BME280;10057;59.402;17.866;2022-09-03T09:35:50;102421.38;;;12.81;67.58
19795;BME280;10057;59.402;17.866;2022-09-03T09:38:27;102422.13;;;12.88;66.99
19795;BME280;10057;59.402;17.866;2022-09-03T09:40:54;102419.44;;;12.89;66.75
19795;BME280;10057;59.402;17.866;2022-09-03T09:43:22;102425.59;;;12.91;66.68
19795;BME280;10057;59.402;17.866;2022-09-03T09:45:51;102416.72;;;12.92;66.75
19795;BME280;10057;59.402;17.866;2022-09-03T09:48:24;102416.63;;;12.97;66.59
19795;BME280;10057;59.402;17.866;2022-09-03T09:51:09;102415.63;;;13.01;66.35
19795;BME280;10057;59.402;17.866;2022-09-03T09:53:37;102419.03;;;13.08;66.79
19795;BME280;10057;59.402;17.866;2022-09-03T09:56:05;102417.16;;;13.13;66.02
19795;BME280;10057;59.402;17.866;2022-09-03T09:58:33;102412.63;;;13.18;66.20
19795;BME280;10057;59.402;17.866;2022-09-03T10:01:39;102409.00;;;13.20;65.82
19795;BME280;10057;59.402;17.866;2022-09-03T10:04:20;102419.59;;;13.25;65.15
19795;BME280;10057;59.402;17.866;2022-09-03T10:06:53;102415.94;;;13.29;65.15
19795;BME280;10057;59.402;17.866;2022-09-03T10:09:26;102418.53;;;13.32;64.90
19795;BME280;10057;59.402;17.866;2022-09-03T10:14:48;102422.94;;;13.35;64.56
19795;BME280;10057;59.402;17.866;2022-09-03T10:20:11;102424.63;;;13.39;63.90
19795;BME280;10057;59.402;17.866;2022-09-03T10:28:21;102415.38;;;13.54;63.60
19795;BME280;10057;59.402;17.866;2022-09-03T10:33:50;102417.03;;;13.59;62.90
19795;BME280;10057;59.402;17.866;2022-09-03T10:36:24;102414.31;;;13.62;62.70
19795;BME280;10057;59.402;17.866;2022-09-03T10:39:04;102407.97;;;13.66;62.69
19795;BME280;10057;59.402;17.866;2022-09-03T10:42:34;102416.78;;;13.71;62.90
19795;BME280;10057;59.402;17.866;2022-09-03T10:45:41;102406.97;;;13.72;62.38
19795;BME280;10057;59.402;17.866;2022-09-03T10:48:28;102409.63;;;13.72;62.81
19795;BME280;10057;59.402;17.866;2022-09-03T10:51:05;102395.25;;;13.78;62.45
19795;BME280;10057;59.402;17.866;2022-09-03T10:53:57;102404.91;;;13.85;62.40
19795;BME280;10057;59.402;17.866;2022-09-03T10:56:36;102394.03;;;13.91;62.56
19795;BME280;10057;59.402;17.866;2022-09-03T11:02:19;102404.34;;;14.06;62.35
19795;BME280;10057;59.402;17.866;2022-09-03T11:04:54;102405.94;;;14.13;62.07
19795;BME280;10057;59.402;17.866;2022-09-03T11:07:33;102395.13;;;14.18;61.84
19795;BME280;10057;59.402;17.866;2022-09-03T11:10:25;102414.50;;;14.26;61.70
19795;BME280;10057;59.402;17.866;2022-09-03T11:20:57;102404.78;;;14.23;60.35
19795;BME280;10057;59.402;17.866;2022-09-03T11:23:28;102403.91;;;14.23;60.16
19795;BME280;10057;59.402;17.866;2022-09-03T11:25:59;102400.38;;;14.22;59.93
19795;BME280;10057;59.402;17.866;2022-09-03T11:34:05;102400.38;;;14.22;59.46
19795;BME280;10057;59.402;17.866;2022-09-03T11:36:37;102401.31;;;14.20;59.06
19795;BME280;10057;59.402;17.866;2022-09-03T11:42:00;102391.56;;;14.19;59.23
19795;BME280;10057;59.402;17.866;2022-09-03T11:44:40;102385.25;;;14.21;59.19
19795;BME280;10057;59.402;17.866;2022-09-03T11:47:43;102392.19;;;14.29;59.07
19795;BME280;10057;59.402;17.866;2022-09-03T11:50:25;102396.50;;;14.34;59.12
19795;BME280;10057;59.402;17.866;2022-09-03T11:53:25;102400.03;;;14.35;58.71
19795;BME280;10057;59.402;17.866;2022-09-03T11:58:34;102394.81;;;14.30;58.27
19795;BME280;10057;59.402;17.866;2022-09-03T12:01:04;102393.09;;;14.29;58.13
19795;BME280;10057;59.402;17.866;2022-09-03T12:03:47;102389.50;;;14.29;58.01
19795;BME280;10057;59.402;17.866;2022-09-03T12:14:46;102395.47;;;14.40;57.63
19795;BME280;10057;59.402;17.866;2022-09-03T12:20:01;102392.53;;;14.51;57.78
19795;BME280;10057;59.402;17.866;2022-09-03T12:22:35;102388.00;;;14.53;57.24
19795;BME280;10057;59.402;17.866;2022-09-03T12:25:22;102390.66;;;14.53;57.12
19795;BME280;10057;59.402;17.866;2022-09-03T12:27:48;102385.31;;;14.54;56.78
19795;BME280;10057;59.402;17.866;2022-09-03T12:30:28;102383.56;;;14.53;56.89
19795;BME280;10057;59.402;17.866;2022-09-03T12:33:04;102376.41;;;14.54;56.76
19795;BME280;10057;59.402;17.866;2022-09-03T12:35:31;102387.91;;;14.57;56.37
19795;BME280;10057;59.402;17.866;2022-09-03T12:38:23;102380.75;;;14.58;56.15
19795;BME280;10057;59.402;17.866;2022-09-03T12:40:50;102387.03;;;14.57;55.82
19795;BME280;10057;59.402;17.866;2022-09-03T12:43:37;102381.69;;;14.57;55.61
19795;BME280;10057;59.402;17.866;2022-09-03T12:46:13;102383.41;;;14.58;55.75
19795;BME280;10057;59.402;17.866;2022-09-03T12:49:01;102383.38;;;14.59;55.54
19795;BME280;10057;59.402;17.866;2022-09-03T12:51:50;102382.47;;;14.60;55.43
19795;BME280;10057;59.402;17.866;2022-09-03T12:54:23;102386.03;;;14.59;55.41
19795;BME280;10057;59.402;17.866;2022-09-03T12:56:56;102384.28;;;14.58;55.29
19795;BME280;10057;59.402;17.866;2022-09-03T12:59:27;102384.28;;;14.60;55.38
19795;BME280;10057;59.402;17.866;2022-09-03T13:01:59;102380.69;;;14.59;55.41
19795;BME280;10057;59.402;17.866;2022-09-03T13:04:30;102377.03;;;14.63;55.64
19795;BME280;10057;59.402;17.866;2022-09-03T13:07:05;102381.47;;;14.64;55.66
19795;BME280;10057;59.402;17.866;2022-09-03T13:09:36;102378.69;;;14.67;55.50
19795;BME280;10057;59.402;17.866;2022-09-03T13:12:03;102380.44;;;14.68;55.37
19795;BME280;10057;59.402;17.866;2022-09-03T13:14:46;102375.00;;;14.72;55.21
19795;BME280;10057;59.402;17.866;2022-09-03T13:20:13;102375.81;;;14.75;54.77
19795;BME280;10057;59.402;17.866;2022-09-03T13:28:46;102372.72;;;14.89;54.94
19795;BME280;10057;59.402;17.866;2022-09-03T13:31:30;102360.00;;;14.97;54.80
19795;BME280;10057;59.402;17.866;2022-09-03T13:34:07;102358.00;;;15.05;54.72
19795;BME280;10057;59.402;17.866;2022-09-03T13:36:53;102361.28;;;15.13;54.85
19795;BME280;10057;59.402;17.866;2022-09-03T13:39:27;102365.53;;;15.21;54.63
19795;BME280;10057;59.402;17.866;2022-09-03T13:42:32;102364.41;;;15.28;54.67
19795;BME280;10057;59.402;17.866;2022-09-03T13:45:20;102366.97;;;15.32;54.41
19795;BME280;10057;59.402;17.866;2022-09-03T13:47:55;102368.75;;;15.32;54.08
19795;BME280;10057;59.402;17.866;2022-09-03T13:54:13;102372.06;;;15.40;53.82
19795;BME280;10057;59.402;17.866;2022-09-03T13:57:08;102372.16;;;15.37;53.66
19795;BME280;10057;59.402;17.866;2022-09-03T13:59:55;102367.84;;;15.33;53.44
19795;BME280;10057;59.402;17.866;2022-09-03T14:02:41;102368.00;;;15.27;53.33
19795;BME280;10057;59.402;17.866;2022-09-03T14:05:15;102369.06;;;15.21;53.42
19795;BME280;10057;59.402;17.866;2022-09-03T14:08:04;102372.78;;;15.17;53.68
19795;BME280;10057;59.402;17.866;2022-09-03T14:10:54;102371.03;;;15.16;53.81
19795;BME280;10057;59.402;17.866;2022-09-03T14:13:35;102366.63;;;15.13;53.90
19795;BME280;10057;59.402;17.866;2022-09-03T14:16:18;102368.44;;;15.13;53.90
19795;BME280;10057;59.402;17.866;2022-09-03T14:19:08;102358.81;;;15.07;54.12
19795;BME280;10057;59.402;17.866;2022-09-03T14:21:44;102365.31;;;14.99;54.04
19795;BME280;10057;59.402;17.866;2022-09-03T14:27:05;102370.91;;;14.91;54.53
19795;BME280;10057;59.402;17.866;2022-09-03T14:29:34;102371.78;;;14.91;54.44
19795;BME280;10057;59.402;17.866;2022-09-03T14:32:14;102361.03;;;14.93;54.54
19795;BME280;10057;59.402;17.866;2022-09-03T14:34:59;102356.59;;;14.92;54.59
19795;BME280;10057;59.402;17.866;2022-09-03T14:40:28;102361.81;;;14.97;55.18
19795;BME280;10057;59.402;17.866;2022-09-03T14:43:02;102357.25;;;15.00;55.04
19795;BME280;10057;59.402;17.866;2022-09-03T15:00:06;102346.31;;;14.78;55.43
19795;BME280;10057;59.402;17.866;2022-09-03T15:05:46;102345.69;;;14.70;55.70
19795;BME280;10057;59.402;17.866;2022-09-03T15:11:09;102341.38;;;14.64;55.98
19795;BME280;10057;59.402;17.866;2022-09-03T15:13:47;102345.00;;;14.63;56.45
19795;BME280;10057;59.402;17.866;2022-09-03T15:16:44;102341.47;;;14.61;56.33
19795;BME280;10057;59.402;17.866;2022-09-03T15:22:11;102336.22;;;14.58;56.55
19795;BME280;10057;59.402;17.866;2022-09-03T15:24:50;102343.50;;;14.53;56.50
19795;BME280;10057;59.402;17.866;2022-09-03T15:35:38;102344.81;;;14.37;57.09
19795;BME280;10057;59.402;17.866;2022-09-03T15:38:18;102345.69;;;14.37;57.42
19795;BME280;10057;59.402;17.866;2022-09-03T15:43:30;102342.00;;;14.41;57.50
19795;BME280;10057;59.402;17.866;2022-09-03T15:46:09;102339.41;;;14.38;57.79
19795;BME280;10057;59.402;17.866;2022-09-03T15:48:54;102344.75;;;14.38;57.69
19795;BME280;10057;59.402;17.866;2022-09-03T15:54:11;102339.56;;;14.32;57.80
19795;BME280;10057;59.402;17.866;2022-09-03T15:57:06;102337.03;;;14.28;57.83